Time;durP1;ratioP1;P1;durP2;ratioP2;P2;SDS_P1;SDS_P2;PMS_P1;PMS_P2;Temp;Humidity;BMP_temperature;BMP_pressure;BME280_temperature;BME280_humidity;BME280_pressure;Samples;Min_cycle;Max_cycle;Signal;HPM_P1;HPM_P2
2022/12/08 00:01:33;;;;;;;11.18;8.43;;;7.00;99.90;;;;;;4980107;28;20463;-73
2022/12/08 00:04:03;;;;;;;10.87;7.90;;;7.00;99.90;;;;;;5013811;28;20617;-74
2022/12/08 00:09:41;;;;;;;15.43;8.65;;;7.00;99.90;;;;;;4994200;28;20854;-73
2022/12/08 00:12:14;;;;;;;14.63;8.60;;;7.00;99.90;;;;;;4992923;28;20301;-73
2022/12/08 00:14:48;;;;;;;12.30;9.13;;;7.00;99.90;;;;;;4979730;28;20807;-73
2022/12/08 00:17:15;;;;;;;12.70;8.67;;;6.90;99.90;;;;;;4987368;28;20519;-73
2022/12/08 00:19:44;;;;;;;10.23;8.23;;;7.00;99.90;;;;;;4976507;28;20463;-73
2022/12/08 00:22:11;;;;;;;10.50;9.43;;;6.90;99.90;;;;;;4975805;28;20478;-73
2022/12/08 00:24:39;;;;;;;14.53;9.50;;;6.90;99.90;;;;;;4994718;28;20485;-73
2022/12/08 00:27:09;;;;;;;10.60;8.87;;;6.90;99.90;;;;;;4980200;28;20403;-73
2022/12/08 00:29:35;;;;;;;10.40;8.70;;;6.90;99.90;;;;;;5010152;28;20457;-73
2022/12/08 00:32:01;;;;;;;11.60;8.83;;;6.90;99.90;;;;;;4994873;28;20474;-73
2022/12/08 00:34:29;;;;;;;12.97;8.33;;;6.90;99.90;;;;;;4963922;28;20510;-73
2022/12/08 00:36:55;;;;;;;12.20;8.50;;;6.90;99.90;;;;;;4995846;28;20412;-73
2022/12/08 00:39:26;;;;;;;11.23;8.93;;;6.90;99.90;;;;;;4995879;28;20724;-73
2022/12/08 00:42:13;;;;;;;12.10;9.00;;;6.90;99.90;;;;;;5011680;28;20458;-73
2022/12/08 00:44:41;;;;;;;11.03;8.80;;;6.90;99.90;;;;;;5009064;28;21043;-74
2022/12/08 00:47:08;;;;;;;9.77;8.37;;;6.90;99.90;;;;;;4992537;28;20946;-73
2022/12/08 00:49:34;;;;;;;14.07;9.93;;;6.90;99.90;;;;;;5008494;28;20463;-73
2022/12/08 00:52:02;;;;;;;11.23;9.40;;;6.90;99.90;;;;;;4994257;28;20431;-73
2022/12/08 00:54:28;;;;;;;12.63;8.27;;;7.00;99.90;;;;;;4979318;28;21000;-73
2022/12/08 00:56:57;;;;;;;10.40;8.27;;;7.00;99.90;;;;;;4995398;28;20402;-73
2022/12/08 00:59:25;;;;;;;12.87;9.00;;;7.00;99.90;;;;;;4979929;28;20444;-73
2022/12/08 01:01:51;;;;;;;10.37;8.63;;;6.90;99.90;;;;;;4979224;28;20453;-73
2022/12/08 01:04:22;;;;;;;11.73;9.30;;;6.90;99.90;;;;;;4995417;28;20451;-73
2022/12/08 01:06:48;;;;;;;11.07;9.63;;;6.90;99.90;;;;;;4992340;28;20426;-73
2022/12/08 01:09:16;;;;;;;12.37;8.53;;;6.90;99.90;;;;;;4995298;28;20418;-73
2022/12/08 01:11:44;;;;;;;13.57;9.47;;;7.00;99.90;;;;;;4982968;28;20463;-73
2022/12/08 01:14:12;;;;;;;10.10;7.70;;;6.90;99.90;;;;;;4988843;28;21050;-73
2022/12/08 01:16:40;;;;;;;14.67;9.20;;;6.90;99.90;;;;;;4979044;28;20462;-73
2022/12/08 01:19:08;;;;;;;12.80;9.80;;;6.90;99.90;;;;;;4979165;28;20467;-73
2022/12/08 01:21:34;;;;;;;10.13;9.05;;;6.90;99.90;;;;;;4995285;28;20897;-73
2022/12/08 01:24:01;;;;;;;11.90;8.90;;;6.90;99.90;;;;;;4994408;28;20192;-73
2022/12/08 01:26:30;;;;;;;14.40;8.97;;;6.90;99.90;;;;;;4976998;28;20487;-73
2022/12/08 01:28:56;;;;;;;16.20;9.67;;;6.90;99.90;;;;;;4960929;28;20434;-73
2022/12/08 01:31:23;;;;;;;14.23;10.10;;;6.90;99.90;;;;;;5011630;28;20445;-73
2022/12/08 01:33:57;;;;;;;10.60;8.60;;;6.90;99.90;;;;;;4987175;28;20478;-73
2022/12/08 01:36:26;;;;;;;11.90;9.03;;;6.90;99.90;;;;;;4962807;28;20426;-73
2022/12/08 01:38:55;;;;;;;12.90;10.10;;;6.90;99.90;;;;;;4975786;28;20534;-73
2022/12/08 01:41:25;;;;;;;13.35;9.57;;;6.90;99.90;;;;;;4968463;28;20542;-73
2022/12/08 01:43:59;;;;;;;15.02;10.00;;;6.90;99.90;;;;;;4974252;28;20546;-73
2022/12/08 01:46:28;;;;;;;14.33;11.03;;;6.90;99.90;;;;;;4943886;28;20229;-73
2022/12/08 01:49:16;;;;;;;15.77;11.17;;;6.90;99.90;;;;;;4980517;28;20434;-73
2022/12/08 01:51:59;;;;;;;14.27;11.07;;;6.90;99.90;;;;;;4978631;28;21092;-73
2022/12/08 01:54:33;;;;;;;15.67;11.57;;;6.90;99.90;;;;;;4989384;28;20498;-73
2022/12/08 01:57:12;;;;;;;15.60;11.07;;;6.90;99.90;;;;;;4986494;28;20494;-73
2022/12/08 01:59:43;;;;;;;13.93;10.32;;;6.90;99.90;;;;;;4962776;28;20500;-73
2022/12/08 02:02:11;;;;;;;14.93;11.17;;;6.90;99.90;;;;;;5001052;28;20195;-73
2022/12/08 02:04:38;;;;;;;14.43;11.00;;;6.90;99.90;;;;;;4987877;28;20525;-73
2022/12/08 02:07:06;;;;;;;16.80;12.00;;;6.90;99.90;;;;;;4996480;28;20457;-73
2022/12/08 02:09:32;;;;;;;16.13;12.23;;;6.90;99.90;;;;;;5002047;28;20450;-74
2022/12/08 02:12:03;;;;;;;15.30;11.87;;;6.90;99.90;;;;;;4982390;28;20458;-73
2022/12/08 02:14:32;;;;;;;15.30;12.00;;;6.90;99.90;;;;;;4997544;28;20423;-73
2022/12/08 02:17:12;;;;;;;23.43;13.43;;;6.80;99.90;;;;;;5015236;28;20457;-73
2022/12/08 02:20:12;;;;;;;18.35;12.63;;;6.90;99.90;;;;;;4998130;28;20453;-73
2022/12/08 02:23:36;;;;;;;16.58;12.98;;;6.80;99.90;;;;;;4962999;28;20220;-73
2022/12/08 02:26:20;;;;;;;17.30;13.23;;;6.80;99.90;;;;;;4937452;28;20667;-74
2022/12/08 02:29:09;;;;;;;19.77;13.07;;;6.80;99.90;;;;;;4996824;28;20190;-75
2022/12/08 02:31:54;;;;;;;21.02;13.57;;;6.80;99.90;;;;;;5012716;28;20283;-75
2022/12/08 02:34:46;;;;;;;17.87;12.00;;;6.80;99.90;;;;;;5006497;28;20174;-75
2022/12/08 02:37:29;;;;;;;18.30;12.40;;;6.80;99.90;;;;;;4947496;28;20529;-75
2022/12/08 02:40:21;;;;;;;19.07;13.67;;;6.80;99.90;;;;;;5013282;28;20955;-75
2022/12/08 02:43:02;;;;;;;17.77;13.50;;;6.80;99.90;;;;;;5010171;28;21015;-75
2022/12/08 02:45:37;;;;;;;19.00;13.90;;;6.80;99.90;;;;;;4994614;28;20205;-75
2022/12/08 02:48:07;;;;;;;18.37;13.40;;;6.80;99.90;;;;;;4996699;28;20433;-75
2022/12/08 02:50:35;;;;;;;18.70;13.17;;;6.80;99.90;;;;;;4996896;28;20464;-75
2022/12/08 02:53:02;;;;;;;17.37;13.37;;;6.80;99.90;;;;;;4996117;28;20424;-75
2022/12/08 02:55:36;;;;;;;16.37;12.17;;;6.80;99.90;;;;;;5012710;28;20430;-75
2022/12/08 02:58:14;;;;;;;17.80;13.70;;;6.80;99.90;;;;;;4996162;28;20922;-74
2022/12/08 03:01:18;;;;;;;19.27;13.60;;;6.80;99.90;;;;;;4996323;28;20454;-75
2022/12/08 03:03:54;;;;;;;18.80;13.10;;;6.80;99.90;;;;;;5009247;28;20437;-75
2022/12/08 03:06:38;;;;;;;18.92;13.35;;;6.80;99.90;;;;;;4945715;28;20215;-75
2022/12/08 03:09:16;;;;;;;18.40;13.50;;;6.80;99.90;;;;;;4995011;28;20177;-75
2022/12/08 03:11:55;;;;;;;18.20;12.67;;;6.80;99.90;;;;;;4960442;28;20448;-74
2022/12/08 03:14:21;;;;;;;16.55;13.00;;;6.80;99.90;;;;;;4983883;28;20438;-75
2022/12/08 03:16:55;;;;;;;16.48;12.63;;;6.80;99.90;;;;;;4995033;28;20179;-75
2022/12/08 03:19:27;;;;;;;18.23;12.90;;;6.80;99.90;;;;;;5006379;28;20219;-75
2022/12/08 03:22:02;;;;;;;15.60;11.70;;;6.80;99.90;;;;;;5012817;28;20226;-75
2022/12/08 03:24:35;;;;;;;17.83;13.07;;;6.80;99.90;;;;;;5005420;28;20482;-75
2022/12/08 03:27:02;;;;;;;17.53;12.50;;;6.80;99.90;;;;;;4976623;28;20390;-75
2022/12/08 03:29:32;;;;;;;16.10;12.70;;;6.80;99.90;;;;;;4976411;28;20425;-75
2022/12/08 03:32:21;;;;;;;21.92;12.55;;;6.80;99.90;;;;;;4963305;28;20450;-75
2022/12/08 03:34:53;;;;;;;15.30;11.80;;;6.80;99.90;;;;;;4985606;28;20242;-75
2022/12/08 03:37:22;;;;;;;17.97;11.47;;;6.80;99.90;;;;;;4976878;28;20448;-75
2022/12/08 03:39:48;;;;;;;16.83;11.90;;;6.80;99.90;;;;;;4976269;28;20449;-76
2022/12/08 03:42:14;;;;;;;17.97;11.60;;;6.80;99.90;;;;;;4960556;28;20206;-75
2022/12/08 03:44:40;;;;;;;16.73;12.18;;;6.80;99.90;;;;;;4990197;28;20464;-75
2022/12/08 03:47:08;;;;;;;16.17;11.20;;;6.80;99.90;;;;;;5001369;28;20583;-75
2022/12/08 03:49:39;;;;;;;16.73;11.90;;;6.80;99.90;;;;;;4975892;28;20834;-75
2022/12/08 03:52:05;;;;;;;18.20;11.50;;;6.80;99.90;;;;;;4991706;28;20461;-75
2022/12/08 03:54:33;;;;;;;16.33;12.10;;;6.80;99.90;;;;;;4967818;28;21120;-75
2022/12/08 03:57:02;;;;;;;15.40;11.02;;;6.80;99.90;;;;;;4980297;28;20424;-75
2022/12/08 03:59:30;;;;;;;15.43;11.37;;;6.80;99.90;;;;;;5007957;28;20200;-75
2022/12/08 04:01:56;;;;;;;19.23;11.40;;;6.80;99.90;;;;;;4995276;28;20449;-75
2022/12/08 04:04:32;;;;;;;14.97;11.23;;;6.80;99.90;;;;;;5002798;28;20185;-74
2022/12/08 04:07:02;;;;;;;13.00;10.30;;;6.80;99.90;;;;;;4960406;28;20422;-75
2022/12/08 04:09:28;;;;;;;13.00;9.70;;;6.80;99.90;;;;;;4976009;28;20454;-75
2022/12/08 04:11:57;;;;;;;14.18;10.30;;;6.80;99.90;;;;;;4987747;28;20621;-75
2022/12/08 04:14:26;;;;;;;13.93;10.40;;;6.80;99.90;;;;;;4985270;28;20201;-75
2022/12/08 04:16:51;;;;;;;13.07;10.07;;;6.80;99.90;;;;;;4993511;28;20924;-75
2022/12/08 04:19:20;;;;;;;11.73;8.70;;;6.80;99.90;;;;;;4995122;28;20592;-75
2022/12/08 04:21:48;;;;;;;11.60;9.38;;;6.80;99.90;;;;;;4994264;28;20434;-75
2022/12/08 04:24:18;;;;;;;12.37;9.93;;;6.80;99.90;;;;;;4985109;28;20724;-75
2022/12/08 04:26:48;;;;;;;13.37;10.33;;;6.80;99.90;;;;;;5011475;28;20499;-75
2022/12/08 04:29:14;;;;;;;14.00;10.23;;;6.80;99.90;;;;;;4975411;28;20885;-75
2022/12/08 04:31:43;;;;;;;15.30;10.73;;;6.80;99.90;;;;;;4975606;28;20195;-75
2022/12/08 04:34:09;;;;;;;13.73;9.57;;;6.80;99.90;;;;;;4975898;28;20286;-75
2022/12/08 04:36:35;;;;;;;13.57;10.37;;;6.80;99.90;;;;;;4959582;28;20514;-75
2022/12/08 04:39:03;;;;;;;15.03;10.60;;;6.80;99.90;;;;;;4978079;28;20812;-75
2022/12/08 04:41:32;;;;;;;11.73;9.97;;;6.80;99.90;;;;;;4987494;28;20463;-75
2022/12/08 04:43:58;;;;;;;11.77;9.27;;;6.80;99.90;;;;;;4971660;28;20423;-74
2022/12/08 04:46:26;;;;;;;13.10;9.90;;;6.80;99.90;;;;;;4982513;28;20230;-75
2022/12/08 04:48:52;;;;;;;11.63;9.33;;;6.80;99.90;;;;;;4993991;28;20422;-75
2022/12/08 04:51:19;;;;;;;11.17;9.10;;;6.80;99.90;;;;;;4993851;28;20444;-74
2022/12/08 04:53:45;;;;;;;13.18;9.60;;;6.80;99.90;;;;;;4998311;28;20456;-75
2022/12/08 04:56:17;;;;;;;12.57;8.97;;;6.80;99.90;;;;;;4982246;28;20254;-75
2022/12/08 04:58:46;;;;;;;11.77;9.20;;;6.80;99.90;;;;;;4975368;28;20466;-75
2022/12/08 05:01:15;;;;;;;12.75;9.40;;;6.80;99.90;;;;;;4959337;28;20833;-75
2022/12/08 05:03:41;;;;;;;12.27;9.40;;;6.80;99.90;;;;;;4962145;28;20768;-74
2022/12/08 05:06:12;;;;;;;11.77;9.23;;;6.80;99.90;;;;;;4978477;28;20429;-74
2022/12/08 05:08:38;;;;;;;12.87;9.83;;;6.80;99.90;;;;;;5009517;28;20173;-75
2022/12/08 05:11:06;;;;;;;14.83;9.73;;;6.80;99.90;;;;;;4992345;28;20438;-75
2022/12/08 05:13:32;;;;;;;12.23;9.23;;;6.80;99.90;;;;;;4983284;28;20469;-75
2022/12/08 05:16:10;;;;;;;12.43;9.70;;;6.70;99.90;;;;;;5009152;28;20485;-75
2022/12/08 05:18:40;;;;;;;13.13;9.30;;;6.80;99.90;;;;;;4993857;28;20557;-75
2022/12/08 05:21:09;;;;;;;12.80;9.60;;;6.80;99.90;;;;;;4977293;28;20461;-75
2022/12/08 05:23:35;;;;;;;13.50;8.93;;;6.80;99.90;;;;;;4990831;28;20448;-75
2022/12/08 05:26:05;;;;;;;13.43;9.53;;;6.80;99.90;;;;;;4994616;28;20987;-75
2022/12/08 05:28:33;;;;;;;11.70;9.65;;;6.80;99.90;;;;;;4996916;28;20401;-74
2022/12/08 05:30:59;;;;;;;13.32;9.73;;;6.70;99.90;;;;;;4981649;28;20215;-75
2022/12/08 05:33:26;;;;;;;12.07;8.90;;;6.80;99.90;;;;;;4981726;28;20221;-77
2022/12/08 05:35:54;;;;;;;12.93;9.50;;;6.70;99.90;;;;;;4966403;28;20983;-74
2022/12/08 05:38:22;;;;;;;13.27;9.82;;;6.80;99.90;;;;;;4994796;28;20464;-75
2022/12/08 05:40:51;;;;;;;11.93;8.80;;;6.80;99.90;;;;;;5013862;28;20731;-73
2022/12/08 05:43:31;;;;;;;10.30;8.90;;;6.80;99.90;;;;;;5014206;28;20982;-73
2022/12/08 05:45:57;;;;;;;10.43;9.32;;;6.70;99.90;;;;;;4998066;28;20390;-73
2022/12/08 05:48:26;;;;;;;11.30;9.30;;;6.80;99.90;;;;;;4956841;28;20177;-73
2022/12/08 05:50:52;;;;;;;11.90;9.10;;;6.70;99.90;;;;;;4980768;28;20431;-73
2022/12/08 05:53:19;;;;;;;10.93;8.77;;;6.70;99.90;;;;;;5011752;28;20622;-73
2022/12/08 05:55:47;;;;;;;12.80;9.53;;;6.70;99.90;;;;;;4978307;28;20899;-73
2022/12/08 05:58:16;;;;;;;12.98;9.25;;;6.70;99.90;;;;;;5013118;28;20460;-73
2022/12/08 06:00:42;;;;;;;10.65;9.15;;;6.70;99.90;;;;;;4990640;28;20287;-73
2022/12/08 06:03:10;;;;;;;11.37;9.40;;;6.70;99.90;;;;;;4995553;28;20701;-73
2022/12/08 06:05:37;;;;;;;13.00;10.05;;;6.70;99.90;;;;;;4978496;28;20934;-73
2022/12/08 06:08:05;;;;;;;12.60;9.30;;;6.80;99.90;;;;;;4962333;28;20261;-73
2022/12/08 06:10:31;;;;;;;11.10;9.30;;;6.80;99.90;;;;;;4976708;28;20491;-73
2022/12/08 06:13:20;;;;;;;13.87;9.77;;;6.80;99.90;;;;;;4997507;28;20419;-73
2022/12/08 06:15:50;;;;;;;13.10;10.47;;;6.80;99.90;;;;;;4978236;28;20427;-73
2022/12/08 06:18:16;;;;;;;15.10;10.90;;;6.80;99.90;;;;;;4979404;28;20399;-73
2022/12/08 06:20:44;;;;;;;13.52;10.52;;;6.80;99.90;;;;;;4975079;28;20980;-73
2022/12/08 06:23:10;;;;;;;13.00;10.20;;;6.70;99.90;;;;;;4956790;28;20226;-73
2022/12/08 06:25:36;;;;;;;15.60;10.40;;;6.80;99.90;;;;;;4981163;28;20985;-73
2022/12/08 06:28:05;;;;;;;13.30;10.70;;;6.70;99.90;;;;;;4971721;28;20456;-73
2022/12/08 06:30:38;;;;;;;16.60;11.60;;;6.80;99.90;;;;;;4999522;28;20454;-73
2022/12/08 06:33:07;;;;;;;15.88;11.88;;;6.80;99.90;;;;;;4997128;28;20432;-73
2022/12/08 06:35:35;;;;;;;18.77;11.33;;;6.80;99.90;;;;;;5013676;28;20207;-73
2022/12/08 06:38:12;;;;;;;14.50;11.20;;;6.70;99.90;;;;;;4998326;28;20406;-73
2022/12/08 06:40:40;;;;;;;15.05;12.45;;;6.80;99.90;;;;;;4995789;28;20804;-73
2022/12/08 06:43:13;;;;;;;14.60;11.20;;;6.70;99.90;;;;;;4980215;28;20218;-73
2022/12/08 06:45:42;;;;;;;16.30;12.00;;;6.70;99.90;;;;;;5013189;28;20394;-73
2022/12/08 06:48:13;;;;;;;14.97;11.60;;;6.80;99.90;;;;;;4995226;28;21118;-73
2022/12/08 06:50:38;;;;;;;13.03;10.77;;;6.70;99.90;;;;;;4994538;28;20446;-73
2022/12/08 06:53:07;;;;;;;17.60;12.37;;;6.70;99.90;;;;;;4992346;28;20203;-73
2022/12/08 06:55:35;;;;;;;14.40;11.03;;;6.70;99.90;;;;;;4970980;28;20505;-73
2022/12/08 06:58:01;;;;;;;13.73;10.23;;;6.70;99.90;;;;;;4994688;28;20399;-73
2022/12/08 07:00:27;;;;;;;14.00;11.17;;;6.70;99.90;;;;;;4980001;28;20803;-73
2022/12/08 07:02:55;;;;;;;16.17;11.67;;;6.70;99.90;;;;;;4996014;28;20418;-73
2022/12/08 07:05:21;;;;;;;14.83;11.20;;;6.70;99.90;;;;;;4995519;28;20513;-73
2022/12/08 07:07:49;;;;;;;13.90;10.23;;;6.70;99.90;;;;;;5014157;28;20452;-74
2022/12/08 07:10:17;;;;;;;13.50;10.27;;;6.70;99.90;;;;;;4978356;28;21007;-73
2022/12/08 07:12:44;;;;;;;11.43;10.03;;;6.70;99.90;;;;;;4982506;28;20171;-73
2022/12/08 07:15:12;;;;;;;12.55;10.15;;;6.70;99.90;;;;;;5012680;28;20415;-73
2022/12/08 07:17:41;;;;;;;13.80;11.00;;;6.70;99.90;;;;;;4994000;28;20250;-74
2022/12/08 07:20:07;;;;;;;13.93;10.77;;;6.70;99.90;;;;;;4988875;28;20489;-73
2022/12/08 07:22:34;;;;;;;12.10;9.67;;;6.70;99.90;;;;;;4991790;28;20513;-76
2022/12/08 07:25:00;;;;;;;14.85;11.10;;;6.70;99.90;;;;;;5002566;28;20467;-73
2022/12/08 07:27:27;;;;;;;13.67;9.97;;;6.70;99.90;;;;;;4995798;28;20191;-73
2022/12/08 07:29:54;;;;;;;13.90;9.90;;;6.70;99.90;;;;;;4972630;28;20465;-73
2022/12/08 07:32:20;;;;;;;15.48;10.70;;;6.70;99.90;;;;;;4995194;28;20453;-73
2022/12/08 07:34:49;;;;;;;14.13;10.95;;;6.70;99.90;;;;;;4976112;28;20172;-73
2022/12/08 07:37:17;;;;;;;14.68;10.27;;;6.70;99.90;;;;;;4976258;28;20750;-73
2022/12/08 07:39:46;;;;;;;12.27;9.40;;;6.70;99.90;;;;;;4944593;28;20214;-73
2022/12/08 07:42:14;;;;;;;12.52;9.70;;;6.70;99.90;;;;;;4979938;28;20835;-73
2022/12/08 07:44:43;;;;;;;12.27;9.60;;;6.70;99.90;;;;;;4995725;28;20656;-73
2022/12/08 07:47:11;;;;;;;11.20;9.10;;;6.70;99.90;;;;;;5004021;28;20179;-73
2022/12/08 07:49:37;;;;;;;14.40;9.97;;;6.70;99.90;;;;;;4979057;28;20864;-73
2022/12/08 07:52:03;;;;;;;11.40;8.93;;;6.70;99.90;;;;;;5012579;28;20449;-73
2022/12/08 07:54:29;;;;;;;10.63;8.70;;;6.70;99.90;;;;;;4978726;28;20978;-73
2022/12/08 07:56:56;;;;;;;10.77;8.50;;;6.70;99.90;;;;;;4995728;28;20417;-73
2022/12/08 07:59:27;;;;;;;10.57;8.73;;;6.70;99.90;;;;;;4984406;28;20475;-73
2022/12/08 08:01:58;;;;;;;12.37;9.17;;;6.70;99.90;;;;;;4979461;28;20465;-73
2022/12/08 08:04:24;;;;;;;13.67;9.00;;;6.70;99.90;;;;;;4984174;28;20445;-73
2022/12/08 08:06:53;;;;;;;11.20;8.90;;;6.70;99.90;;;;;;4960178;28;20431;-73
2022/12/08 08:09:25;;;;;;;12.57;9.07;;;6.70;99.90;;;;;;4964786;28;20937;-73
2022/12/08 08:11:51;;;;;;;13.30;9.10;;;6.70;99.90;;;;;;4991479;28;20454;-73
2022/12/08 08:14:18;;;;;;;10.87;9.20;;;6.70;99.90;;;;;;5001863;28;20512;-73
2022/12/08 08:16:46;;;;;;;11.43;8.70;;;6.70;99.90;;;;;;4985528;28;20445;-73
2022/12/08 08:19:17;;;;;;;10.43;8.10;;;6.70;99.90;;;;;;4976353;28;20443;-73
2022/12/08 08:21:46;;;;;;;14.80;8.38;;;6.70;99.90;;;;;;4975585;28;20207;-73
2022/12/08 08:24:14;;;;;;;11.40;8.40;;;6.70;99.90;;;;;;4959826;28;20245;-73
2022/12/08 08:26:47;;;;;;;9.68;8.05;;;6.70;99.90;;;;;;4988903;28;20838;-73
2022/12/08 08:29:13;;;;;;;12.40;8.98;;;6.70;99.90;;;;;;5012281;28;20204;-73
2022/12/08 08:31:41;;;;;;;11.95;8.88;;;6.70;99.90;;;;;;4993071;28;20665;-73
2022/12/08 08:34:10;;;;;;;10.50;7.32;;;6.70;99.90;;;;;;4988948;28;20572;-72
2022/12/08 08:36:38;;;;;;;10.38;8.10;;;6.70;99.90;;;;;;5003375;28;20206;-70
2022/12/08 08:39:04;;;;;;;12.50;8.30;;;6.70;99.90;;;;;;4979032;28;20665;-73
2022/12/08 08:41:34;;;;;;;9.63;8.03;;;6.70;99.90;;;;;;4985307;28;20448;-73
2022/12/08 08:44:00;;;;;;;8.80;7.53;;;6.70;99.90;;;;;;4957570;28;20445;-73
2022/12/08 08:46:29;;;;;;;9.70;7.70;;;6.70;99.90;;;;;;4959095;28;20430;-73
2022/12/08 08:48:55;;;;;;;13.60;9.10;;;6.70;99.90;;;;;;4978572;28;20434;-73
2022/12/08 08:51:21;;;;;;;10.48;8.27;;;6.70;99.90;;;;;;4985608;28;20470;-73
2022/12/08 08:53:47;;;;;;;11.07;8.63;;;6.70;99.90;;;;;;4990169;28;20653;-73
2022/12/08 08:56:18;;;;;;;11.38;7.80;;;6.70;99.90;;;;;;4978103;28;20580;-73
2022/12/08 08:58:47;;;;;;;10.80;7.90;;;6.70;99.90;;;;;;4964824;28;20204;-73
2022/12/08 09:01:18;;;;;;;14.03;9.13;;;6.70;99.90;;;;;;4992925;28;20447;-73
2022/12/08 09:03:47;;;;;;;11.20;8.87;;;6.70;99.90;;;;;;4995241;28;20450;-73
2022/12/08 09:06:14;;;;;;;12.07;8.80;;;6.70;99.90;;;;;;4987418;28;20868;-73
2022/12/08 09:08:43;;;;;;;12.60;8.90;;;6.70;99.90;;;;;;4982260;28;20248;-74
2022/12/08 09:11:12;;;;;;;18.70;9.93;;;6.70;99.90;;;;;;4981745;28;20504;-73
2022/12/08 09:13:41;;;;;;;13.93;10.30;;;6.70;99.90;;;;;;4979967;28;20455;-73
2022/12/08 09:16:08;;;;;;;12.70;10.05;;;6.70;99.90;;;;;;5012061;28;20919;-74
2022/12/08 09:18:39;;;;;;;15.13;10.10;;;6.70;99.90;;;;;;5000107;28;20668;-73
2022/12/08 09:21:08;;;;;;;11.55;9.50;;;6.70;99.90;;;;;;4981514;28;20211;-73
2022/12/08 09:23:34;;;;;;;13.13;10.38;;;6.70;99.90;;;;;;4990433;28;20281;-73
2022/12/08 09:26:03;;;;;;;13.80;9.43;;;6.70;99.90;;;;;;4984856;28;20166;-73
2022/12/08 09:28:30;;;;;;;13.40;10.27;;;6.70;99.90;;;;;;5015278;28;20430;-73
2022/12/08 09:31:00;;;;;;;14.50;10.90;;;6.70;99.90;;;;;;4992304;28;20888;-73
2022/12/08 09:33:31;;;;;;;14.40;10.93;;;6.70;99.90;;;;;;4992522;28;20994;-73
2022/12/08 09:36:02;;;;;;;14.70;11.43;;;6.70;99.90;;;;;;4996480;28;20838;-73
2022/12/08 09:38:30;;;;;;;16.60;11.53;;;6.70;99.90;;;;;;4985383;28;20423;-73
2022/12/08 09:40:57;;;;;;;17.33;11.38;;;6.70;99.90;;;;;;4978107;28;20430;-73
2022/12/08 09:43:47;;;;;;;14.57;10.43;;;6.70;99.90;;;;;;4997907;28;20227;-73
2022/12/08 09:46:16;;;;;;;16.25;11.45;;;6.70;99.90;;;;;;4978498;28;20788;-73
2022/12/08 09:48:54;;;;;;;14.90;10.27;;;6.70;99.90;;;;;;4989819;28;20176;-73
2022/12/08 09:51:49;;;;;;;16.30;10.57;;;6.70;99.90;;;;;;4994823;28;20448;-73
2022/12/08 09:54:37;;;;;;;15.45;10.68;;;6.70;99.90;;;;;;4968708;28;20531;-73
2022/12/08 09:57:12;;;;;;;15.37;11.00;;;6.70;99.90;;;;;;4977945;28;20187;-73
2022/12/08 09:59:42;;;;;;;15.82;11.23;;;6.70;99.90;;;;;;4987886;28;20477;-73
2022/12/08 10:02:23;;;;;;;16.90;11.77;;;6.70;99.90;;;;;;4963276;28;20549;-73
2022/12/08 10:04:50;;;;;;;13.82;10.95;;;6.70;99.90;;;;;;4981564;28;20418;-74
2022/12/08 10:07:36;;;;;;;15.00;10.53;;;6.70;99.90;;;;;;4992839;28;20170;-74
2022/12/08 10:10:14;;;;;;;17.00;11.43;;;6.70;99.90;;;;;;4996098;28;20437;-74
2022/12/08 10:12:56;;;;;;;15.63;10.20;;;6.70;99.90;;;;;;4967644;28;20594;-74
2022/12/08 10:15:31;;;;;;;20.02;11.63;;;6.70;99.90;;;;;;4995518;28;20452;-74
2022/12/08 10:18:00;;;;;;;14.60;9.90;;;6.70;99.90;;;;;;4965669;28;20566;-74
2022/12/08 10:20:50;;;;;;;12.73;9.90;;;6.70;99.90;;;;;;4980725;28;20933;-74
2022/12/08 10:23:33;;;;;;;13.25;10.45;;;6.70;99.90;;;;;;4977756;28;20723;-74
2022/12/08 10:26:03;;;;;;;16.70;10.30;;;6.70;99.90;;;;;;4977332;28;20176;-74
2022/12/08 10:28:33;;;;;;;18.88;11.27;;;6.70;99.90;;;;;;4961964;28;20791;-74
2022/12/08 10:31:01;;;;;;;16.60;10.13;;;6.70;99.90;;;;;;4974391;28;20211;-74
2022/12/08 10:33:31;;;;;;;13.40;10.40;;;6.70;99.90;;;;;;5014179;28;20625;-74
2022/12/08 10:36:01;;;;;;;19.70;10.33;;;6.70;99.90;;;;;;5013003;28;20452;-74
2022/12/08 10:38:36;;;;;;;16.33;10.27;;;6.70;99.90;;;;;;4995786;28;20465;-74
2022/12/08 10:41:05;;;;;;;16.83;10.00;;;6.70;99.90;;;;;;4990483;28;20206;-74
2022/12/08 10:43:32;;;;;;;13.07;9.93;;;6.60;99.90;;;;;;4982039;28;20434;-74
2022/12/08 10:46:10;;;;;;;17.90;9.80;;;6.70;99.90;;;;;;4981800;28;20164;-74
2022/12/08 10:48:47;;;;;;;13.48;9.90;;;6.70;99.90;;;;;;4981598;28;20469;-74
2022/12/08 10:51:28;;;;;;;15.40;10.23;;;6.60;99.90;;;;;;4981784;28;20212;-74
2022/12/08 10:53:56;;;;;;;14.60;10.53;;;6.70;99.90;;;;;;4997888;28;20543;-74
2022/12/08 10:56:28;;;;;;;18.95;10.38;;;6.70;99.90;;;;;;4997681;28;20891;-74
2022/12/08 10:59:14;;;;;;;17.08;10.55;;;6.70;99.90;;;;;;4998320;28;20702;-74
2022/12/08 11:01:44;;;;;;;17.80;9.37;;;6.70;99.90;;;;;;4981493;28;20217;-74
2022/12/08 11:04:21;;;;;;;16.83;10.50;;;6.70;99.90;;;;;;4981670;28;20426;-74
2022/12/08 11:06:54;;;;;;;18.83;9.60;;;6.70;99.90;;;;;;4997894;28;20651;-74
2022/12/08 11:09:29;;;;;;;17.43;10.20;;;6.70;99.90;;;;;;5015222;28;20402;-74
2022/12/08 11:12:21;;;;;;;13.40;9.55;;;6.70;99.90;;;;;;5015013;28;20520;-74
2022/12/08 11:14:53;;;;;;;13.93;9.88;;;6.70;99.90;;;;;;5014077;28;20217;-73
2022/12/08 11:17:24;;;;;;;13.82;10.05;;;6.70;99.90;;;;;;4992662;28;20186;-73
2022/12/08 11:20:13;;;;;;;15.73;10.88;;;6.70;99.90;;;;;;4964364;28;20199;-73
2022/12/08 11:22:44;;;;;;;14.93;9.73;;;6.70;99.90;;;;;;4983158;28;20615;-75
2022/12/08 11:25:14;;;;;;;13.30;9.43;;;6.70;99.90;;;;;;4949946;28;20192;-77
2022/12/08 11:27:46;;;;;;;14.70;10.35;;;6.70;99.90;;;;;;4990019;28;20178;-75
2022/12/08 11:30:28;;;;;;;12.63;9.33;;;6.70;99.90;;;;;;5013247;28;20171;-77
2022/12/08 11:33:07;;;;;;;13.70;10.23;;;6.70;99.90;;;;;;4981975;28;20427;-76
2022/12/08 11:35:45;;;;;;;18.10;10.13;;;6.70;99.90;;;;;;4997275;28;20297;-77
2022/12/08 11:38:14;;;;;;;12.90;9.40;;;6.70;99.90;;;;;;4981226;28;20187;-78
2022/12/08 11:40:46;;;;;;;14.25;10.10;;;6.70;99.90;;;;;;5014151;28;20215;-79
2022/12/08 11:43:26;;;;;;;12.60;9.93;;;6.70;99.90;;;;;;4995901;28;20187;-79
2022/12/08 11:46:01;;;;;;;14.93;9.90;;;6.70;99.90;;;;;;4994243;28;20735;-76
2022/12/08 11:48:50;;;;;;;13.73;10.37;;;6.70;99.90;;;;;;4996648;28;20213;-76
2022/12/08 11:51:53;;;;;;;11.03;9.00;;;6.70;99.90;;;;;;4996611;28;20441;-74
2022/12/08 11:54:33;;;;;;;16.30;10.50;;;6.70;99.90;;;;;;4981014;28;20507;-75
2022/12/08 11:57:04;;;;;;;15.80;9.20;;;6.70;99.90;;;;;;4997409;28;20933;-74
2022/12/08 11:59:48;;;;;;;12.98;9.30;;;6.70;99.90;;;;;;5014154;28;20456;-73
2022/12/08 12:02:23;;;;;;;14.00;10.67;;;6.70;99.90;;;;;;4996751;28;20562;-73
2022/12/08 12:04:49;;;;;;;13.40;9.57;;;6.70;99.90;;;;;;4996673;28;20395;-75
2022/12/08 12:07:43;;;;;;;11.63;9.30;;;6.70;99.90;;;;;;4996602;28;20184;-74
2022/12/08 12:10:34;;;;;;;13.87;10.30;;;6.70;99.90;;;;;;4996141;28;20402;-73
2022/12/08 12:13:09;;;;;;;12.93;9.50;;;6.70;99.90;;;;;;4996509;28;20907;-73
2022/12/08 12:16:01;;;;;;;12.35;8.70;;;6.70;99.90;;;;;;5013987;28;20401;-73
2022/12/08 12:19:04;;;;;;;11.70;9.00;;;6.70;99.90;;;;;;4996110;28;20178;-73
2022/12/08 12:21:44;;;;;;;15.93;10.57;;;6.70;99.90;;;;;;5013645;28;20779;-72
2022/12/08 12:24:16;;;;;;;15.07;9.63;;;6.70;99.90;;;;;;4996220;28;20187;-72
2022/12/08 12:27:02;;;;;;;13.57;9.43;;;6.70;99.90;;;;;;4996165;28;20167;-72
2022/12/08 12:29:37;;;;;;;13.73;10.13;;;6.70;99.90;;;;;;5013776;28;20445;-72
2022/12/08 12:32:08;;;;;;;16.00;10.25;;;6.70;99.90;;;;;;4963437;28;20198;-73
2022/12/08 12:34:43;;;;;;;13.13;9.93;;;6.70;99.90;;;;;;4979773;28;20268;-73
2022/12/08 12:37:14;;;;;;;12.70;9.75;;;6.70;99.90;;;;;;4996424;28;20170;-73
2022/12/08 12:39:54;;;;;;;15.57;9.35;;;6.70;99.90;;;;;;5013172;28;20226;-73
2022/12/08 12:42:40;;;;;;;13.95;10.20;;;6.70;99.90;;;;;;4995572;28;20674;-73
2022/12/08 12:45:15;;;;;;;13.50;9.88;;;6.70;99.90;;;;;;5013458;28;20173;-73
2022/12/08 12:47:56;;;;;;;15.47;8.87;;;6.70;99.90;;;;;;5013395;28;20237;-73
2022/12/08 12:50:43;;;;;;;14.63;9.48;;;6.70;99.90;;;;;;5013310;28;20917;-73
2022/12/08 12:53:15;;;;;;;13.20;9.77;;;6.70;99.90;;;;;;4995559;28;20284;-73
2022/12/08 12:55:44;;;;;;;13.95;10.23;;;6.70;99.90;;;;;;4979547;28;20208;-73
2022/12/08 12:58:31;;;;;;;11.70;9.07;;;6.70;99.90;;;;;;5012158;28;20237;-73
2022/12/08 13:01:09;;;;;;;14.77;9.57;;;6.70;99.90;;;;;;4995917;28;21013;-72
2022/12/08 13:03:40;;;;;;;13.05;9.25;;;6.70;99.90;;;;;;4993690;28;20714;-73
2022/12/08 13:06:11;;;;;;;13.00;9.57;;;6.70;99.90;;;;;;4993437;28;20167;-73
2022/12/08 13:08:40;;;;;;;13.07;9.38;;;6.70;99.90;;;;;;4958937;28;20172;-74
2022/12/08 13:11:09;;;;;;;13.00;10.63;;;6.70;99.90;;;;;;4993318;28;20556;-74